Terminal Aerodrome Forecast
Issued by NWS Paducah, KY

Home | Current Version | Previous Version | Graphics & Text | Print | Product List | Glossary On
Versions: 1 2 3 4 5 6 7 8 9 10 11 12 13 14 15 16 17 18 19 20 21 22
000
FTUS43 KPAH 300100 AAA
TAFPAH
TAF AMD
KPAH 300154Z 3002/3024 21004KT P6SM BKN150
     FM300500 VRB04KT 3SM TSRA BR BKN040CB
     FM300700 17004KT P6SM VCTS OVC035CB
     FM301200 17004KT 4SM SHRA BR BKN050
     FM301500 20007KT 3SM SHRA BR OVC035=

USA.gov is the U.S. government's official web portal to all federal, state and local government web resources and services.